sensor_id;sensor_type;location;lat;lon;timestamp;temperature;humidity
35457;DHT22;21575;51.538;-0.084;2022-07-15T00:00:37;18.00;99.90
35457;DHT22;21575;51.538;-0.084;2022-07-15T00:03:03;18.00;99.90
35457;DHT22;21575;51.538;-0.084;2022-07-15T00:05:29;17.90;99.90
35457;DHT22;21575;51.538;-0.084;2022-07-15T00:07:54;17.90;99.90
35457;DHT22;21575;51.538;-0.084;2022-07-15T00:10:21;17.90;99.90
35457;DHT22;21575;51.538;-0.084;2022-07-15T00:12:57;17.90;99.90
35457;DHT22;21575;51.538;-0.084;2022-07-15T00:15:24;17.80;99.90
35457;DHT22;21575;51.538;-0.084;2022-07-15T00:17:51;17.80;99.90
35457;DHT22;21575;51.538;-0.084;2022-07-15T00:20:17;17.70;99.90
35457;DHT22;21575;51.538;-0.084;2022-07-15T00:22:44;17.70;99.90
35457;DHT22;21575;51.538;-0.084;2022-07-15T00:25:11;17.60;99.90
35457;DHT22;21575;51.538;-0.084;2022-07-15T00:27:53;17.60;99.90
35457;DHT22;21575;51.538;-0.084;2022-07-15T00:30:20;17.60;99.90
35457;DHT22;21575;51.538;-0.084;2022-07-15T00:32:46;17.50;99.90
35457;DHT22;21575;51.538;-0.084;2022-07-15T00:35:12;17.50;99.90
35457;DHT22;21575;51.538;-0.084;2022-07-15T00:37:37;17.50;99.90
35457;DHT22;21575;51.538;-0.084;2022-07-15T00:40:03;17.50;99.90
35457;DHT22;21575;51.538;-0.084;2022-07-15T00:42:29;17.40;99.90
35457;DHT22;21575;51.538;-0.084;2022-07-15T00:45:16;17.40;99.90
35457;DHT22;21575;51.538;-0.084;2022-07-15T00:47:47;17.30;99.90
35457;DHT22;21575;51.538;-0.084;2022-07-15T00:50:14;17.30;99.90
35457;DHT22;21575;51.538;-0.084;2022-07-15T00:52:43;17.20;99.90
35457;DHT22;21575;51.538;-0.084;2022-07-15T00:55:11;17.20;99.90
35457;DHT22;21575;51.538;-0.084;2022-07-15T00:57:43;17.20;99.90
35457;DHT22;21575;51.538;-0.084;2022-07-15T01:00:10;17.20;99.90
35457;DHT22;21575;51.538;-0.084;2022-07-15T01:02:38;17.10;99.90
35457;DHT22;21575;51.538;-0.084;2022-07-15T01:05:05;17.10;99.90
35457;DHT22;21575;51.538;-0.084;2022-07-15T01:07:32;17.10;99.90
35457;DHT22;21575;51.538;-0.084;2022-07-15T01:09:58;17.00;99.90
35457;DHT22;21575;51.538;-0.084;2022-07-15T01:12:26;17.00;99.90
35457;DHT22;21575;51.538;-0.084;2022-07-15T01:14:52;17.00;99.90
35457;DHT22;21575;51.538;-0.084;2022-07-15T01:17:18;16.90;99.90
35457;DHT22;21575;51.538;-0.084;2022-07-15T01:19:44;16.90;99.90
35457;DHT22;21575;51.538;-0.084;2022-07-15T01:22:10;16.90;99.90
35457;DHT22;21575;51.538;-0.084;2022-07-15T01:24:35;16.80;99.90
35457;DHT22;21575;51.538;-0.084;2022-07-15T01:27:01;16.80;99.90
35457;DHT22;21575;51.538;-0.084;2022-07-15T01:29:28;16.80;99.90
35457;DHT22;21575;51.538;-0.084;2022-07-15T01:31:54;16.80;99.90
35457;DHT22;21575;51.538;-0.084;2022-07-15T01:34:20;16.70;99.90
35457;DHT22;21575;51.538;-0.084;2022-07-15T01:36:46;16.60;99.90
35457;DHT22;21575;51.538;-0.084;2022-07-15T01:39:11;16.70;99.90
35457;DHT22;21575;51.538;-0.084;2022-07-15T01:41:37;16.60;99.90
35457;DHT22;21575;51.538;-0.084;2022-07-15T01:44:03;16.60;99.90
35457;DHT22;21575;51.538;-0.084;2022-07-15T01:46:29;16.50;99.90
35457;DHT22;21575;51.538;-0.084;2022-07-15T01:48:54;16.50;99.90
35457;DHT22;21575;51.538;-0.084;2022-07-15T01:51:39;16.40;99.90
35457;DHT22;21575;51.538;-0.084;2022-07-15T01:54:05;16.40;99.90
35457;DHT22;21575;51.538;-0.084;2022-07-15T01:56:30;16.40;99.90
35457;DHT22;21575;51.538;-0.084;2022-07-15T01:58:56;16.30;99.90
35457;DHT22;21575;51.538;-0.084;2022-07-15T02:01:22;16.30;99.90
35457;DHT22;21575;51.538;-0.084;2022-07-15T02:03:47;16.30;99.90
35457;DHT22;21575;51.538;-0.084;2022-07-15T02:06:13;16.20;99.90
35457;DHT22;21575;51.538;-0.084;2022-07-15T02:08:39;16.20;99.90
35457;DHT22;21575;51.538;-0.084;2022-07-15T02:11:05;16.20;99.90
35457;DHT22;21575;51.538;-0.084;2022-07-15T02:13:31;16.20;99.90
35457;DHT22;21575;51.538;-0.084;2022-07-15T02:15:57;16.20;99.90
35457;DHT22;21575;51.538;-0.084;2022-07-15T02:18:22;16.10;99.90
35457;DHT22;21575;51.538;-0.084;2022-07-15T02:20:48;16.10;99.90
35457;DHT22;21575;51.538;-0.084;2022-07-15T02:23:14;16.10;99.90
35457;DHT22;21575;51.538;-0.084;2022-07-15T02:25:39;16.00;99.90
35457;DHT22;21575;51.538;-0.084;2022-07-15T02:28:06;16.00;99.90
35457;DHT22;21575;51.538;-0.084;2022-07-15T02:30:35;16.00;99.90
35457;DHT22;21575;51.538;-0.084;2022-07-15T02:33:02;16.00;99.90
35457;DHT22;21575;51.538;-0.084;2022-07-15T02:35:29;16.00;99.90
35457;DHT22;21575;51.538;-0.084;2022-07-15T02:37:55;15.90;99.90
35457;DHT22;21575;51.538;-0.084;2022-07-15T02:40:20;15.90;99.90
35457;DHT22;21575;51.538;-0.084;2022-07-15T02:42:55;15.90;99.90
35457;DHT22;21575;51.538;-0.084;2022-07-15T02:45:26;15.90;99.90
35457;DHT22;21575;51.538;-0.084;2022-07-15T02:47:52;15.90;99.90
35457;DHT22;21575;51.538;-0.084;2022-07-15T02:50:18;15.80;99.90
35457;DHT22;21575;51.538;-0.084;2022-07-15T02:52:44;15.80;99.90
35457;DHT22;21575;51.538;-0.084;2022-07-15T02:55:11;15.80;99.90
35457;DHT22;21575;51.538;-0.084;2022-07-15T02:57:37;15.80;99.90
35457;DHT22;21575;51.538;-0.084;2022-07-15T03:00:05;15.80;99.90
35457;DHT22;21575;51.538;-0.084;2022-07-15T03:02:31;15.70;99.90
35457;DHT22;21575;51.538;-0.084;2022-07-15T03:04:57;15.70;99.90
35457;DHT22;21575;51.538;-0.084;2022-07-15T03:07:23;15.70;99.90
35457;DHT22;21575;51.538;-0.084;2022-07-15T03:09:49;15.60;99.90
35457;DHT22;21575;51.538;-0.084;2022-07-15T03:12:14;15.60;99.90
35457;DHT22;21575;51.538;-0.084;2022-07-15T03:14:40;15.60;99.90
35457;DHT22;21575;51.538;-0.084;2022-07-15T03:17:06;15.50;99.90
35457;DHT22;21575;51.538;-0.084;2022-07-15T03:19:32;15.60;99.90
35457;DHT22;21575;51.538;-0.084;2022-07-15T03:21:58;15.60;99.90
35457;DHT22;21575;51.538;-0.084;2022-07-15T03:24:24;15.60;99.90
35457;DHT22;21575;51.538;-0.084;2022-07-15T03:26:50;15.60;99.90
35457;DHT22;21575;51.538;-0.084;2022-07-15T03:29:15;15.50;99.90
35457;DHT22;21575;51.538;-0.084;2022-07-15T03:31:44;15.50;99.90
35457;DHT22;21575;51.538;-0.084;2022-07-15T03:34:10;15.50;99.90
35457;DHT22;21575;51.538;-0.084;2022-07-15T03:36:37;15.50;99.90
35457;DHT22;21575;51.538;-0.084;2022-07-15T03:39:03;15.50;99.90
35457;DHT22;21575;51.538;-0.084;2022-07-15T03:41:29;15.40;99.90
35457;DHT22;21575;51.538;-0.084;2022-07-15T03:43:55;15.40;99.90
35457;DHT22;21575;51.538;-0.084;2022-07-15T03:46:21;15.40;99.90
35457;DHT22;21575;51.538;-0.084;2022-07-15T03:48:46;15.40;99.90
35457;DHT22;21575;51.538;-0.084;2022-07-15T03:51:12;15.40;99.90
35457;DHT22;21575;51.538;-0.084;2022-07-15T03:53:38;15.40;99.90
35457;DHT22;21575;51.538;-0.084;2022-07-15T03:56:04;15.30;99.90
35457;DHT22;21575;51.538;-0.084;2022-07-15T03:58:29;15.30;99.90
35457;DHT22;21575;51.538;-0.084;2022-07-15T04:00:55;15.30;99.90
35457;DHT22;21575;51.538;-0.084;2022-07-15T04:03:21;15.30;99.90
35457;DHT22;21575;51.538;-0.084;2022-07-15T04:05:46;15.30;99.90
35457;DHT22;21575;51.538;-0.084;2022-07-15T04:08:12;15.30;99.90
35457;DHT22;21575;51.538;-0.084;2022-07-15T04:10:37;15.30;99.90
35457;DHT22;21575;51.538;-0.084;2022-07-15T04:13:03;15.20;99.90
35457;DHT22;21575;51.538;-0.084;2022-07-15T04:15:29;15.20;99.90
35457;DHT22;21575;51.538;-0.084;2022-07-15T04:17:55;15.20;99.90
35457;DHT22;21575;51.538;-0.084;2022-07-15T04:20:24;15.20;99.90
35457;DHT22;21575;51.538;-0.084;2022-07-15T04:22:50;15.20;99.90
35457;DHT22;21575;51.538;-0.084;2022-07-15T04:25:18;15.20;99.90
35457;DHT22;21575;51.538;-0.084;2022-07-15T04:27:44;15.20;99.90
35457;DHT22;21575;51.538;-0.084;2022-07-15T04:30:11;15.20;99.90
35457;DHT22;21575;51.538;-0.084;2022-07-15T04:32:37;15.20;99.90
35457;DHT22;21575;51.538;-0.084;2022-07-15T04:35:03;15.20;99.90
35457;DHT22;21575;51.538;-0.084;2022-07-15T04:37:29;15.20;99.90
35457;DHT22;21575;51.538;-0.084;2022-07-15T04:39:55;15.20;99.90
35457;DHT22;21575;51.538;-0.084;2022-07-15T04:42:22;15.20;99.90
35457;DHT22;21575;51.538;-0.084;2022-07-15T04:44:48;15.20;99.90
35457;DHT22;21575;51.538;-0.084;2022-07-15T04:47:14;15.30;99.90
35457;DHT22;21575;51.538;-0.084;2022-07-15T04:49:40;15.20;99.90
35457;DHT22;21575;51.538;-0.084;2022-07-15T04:52:24;15.20;99.90
35457;DHT22;21575;51.538;-0.084;2022-07-15T04:54:51;15.30;99.90
35457;DHT22;21575;51.538;-0.084;2022-07-15T04:57:17;15.30;99.90
35457;DHT22;21575;51.538;-0.084;2022-07-15T04:59:42;15.30;99.90
35457;DHT22;21575;51.538;-0.084;2022-07-15T05:02:08;15.30;99.90
35457;DHT22;21575;51.538;-0.084;2022-07-15T05:04:34;15.40;99.90
35457;DHT22;21575;51.538;-0.084;2022-07-15T05:06:59;15.40;99.90
35457;DHT22;21575;51.538;-0.084;2022-07-15T05:09:25;15.50;99.90
35457;DHT22;21575;51.538;-0.084;2022-07-15T05:11:50;15.60;99.90
35457;DHT22;21575;51.538;-0.084;2022-07-15T05:14:16;15.70;99.90
35457;DHT22;21575;51.538;-0.084;2022-07-15T05:16:42;15.80;99.90
35457;DHT22;21575;51.538;-0.084;2022-07-15T05:19:07;15.90;99.90
35457;DHT22;21575;51.538;-0.084;2022-07-15T05:21:33;16.00;99.90
35457;DHT22;21575;51.538;-0.084;2022-07-15T05:23:59;16.00;99.90
35457;DHT22;21575;51.538;-0.084;2022-07-15T05:26:24;16.10;99.90
35457;DHT22;21575;51.538;-0.084;2022-07-15T05:28:50;16.10;99.90
35457;DHT22;21575;51.538;-0.084;2022-07-15T05:31:15;16.20;99.90
35457;DHT22;21575;51.538;-0.084;2022-07-15T05:33:42;16.20;99.90
35457;DHT22;21575;51.538;-0.084;2022-07-15T05:36:15;16.20;99.90
35457;DHT22;21575;51.538;-0.084;2022-07-15T05:38:41;16.20;99.90
35457;DHT22;21575;51.538;-0.084;2022-07-15T05:41:08;16.30;99.90
35457;DHT22;21575;51.538;-0.084;2022-07-15T05:43:35;16.30;99.90
35457;DHT22;21575;51.538;-0.084;2022-07-15T05:46:01;16.30;99.90
35457;DHT22;21575;51.538;-0.084;2022-07-15T05:48:26;16.30;99.90
35457;DHT22;21575;51.538;-0.084;2022-07-15T05:50:52;16.30;99.90
35457;DHT22;21575;51.538;-0.084;2022-07-15T05:53:18;16.40;99.90
35457;DHT22;21575;51.538;-0.084;2022-07-15T05:55:44;16.50;99.90
35457;DHT22;21575;51.538;-0.084;2022-07-15T05:58:10;16.50;99.90
35457;DHT22;21575;51.538;-0.084;2022-07-15T06:00:36;16.50;99.90
35457;DHT22;21575;51.538;-0.084;2022-07-15T06:03:03;16.60;99.90
35457;DHT22;21575;51.538;-0.084;2022-07-15T06:05:29;16.60;99.90
35457;DHT22;21575;51.538;-0.084;2022-07-15T06:07:55;16.70;99.90
35457;DHT22;21575;51.538;-0.084;2022-07-15T06:10:21;16.70;99.90
35457;DHT22;21575;51.538;-0.084;2022-07-15T06:12:46;16.70;99.90
35457;DHT22;21575;51.538;-0.084;2022-07-15T06:15:12;16.70;99.90
35457;DHT22;21575;51.538;-0.084;2022-07-15T06:17:38;16.80;99.90
35457;DHT22;21575;51.538;-0.084;2022-07-15T06:20:05;16.90;99.90
35457;DHT22;21575;51.538;-0.084;2022-07-15T06:22:31;17.00;99.90
35457;DHT22;21575;51.538;-0.084;2022-07-15T06:24:56;17.00;99.90
35457;DHT22;21575;51.538;-0.084;2022-07-15T06:27:22;17.10;99.90
35457;DHT22;21575;51.538;-0.084;2022-07-15T06:29:51;17.10;99.90
35457;DHT22;21575;51.538;-0.084;2022-07-15T06:32:18;17.20;99.90
35457;DHT22;21575;51.538;-0.084;2022-07-15T06:34:44;17.10;99.90
35457;DHT22;21575;51.538;-0.084;2022-07-15T06:37:10;17.20;99.90
35457;DHT22;21575;51.538;-0.084;2022-07-15T06:39:36;17.20;99.90
35457;DHT22;21575;51.538;-0.084;2022-07-15T06:42:02;17.30;99.90
35457;DHT22;21575;51.538;-0.084;2022-07-15T06:44:28;17.20;99.90
35457;DHT22;21575;51.538;-0.084;2022-07-15T06:46:53;17.20;99.90
35457;DHT22;21575;51.538;-0.084;2022-07-15T06:49:19;17.20;99.90
35457;DHT22;21575;51.538;-0.084;2022-07-15T06:51:45;17.30;99.90
35457;DHT22;21575;51.538;-0.084;2022-07-15T06:54:10;17.20;99.90
35457;DHT22;21575;51.538;-0.084;2022-07-15T06:56:37;17.20;99.90
35457;DHT22;21575;51.538;-0.084;2022-07-15T06:59:03;17.20;99.90
35457;DHT22;21575;51.538;-0.084;2022-07-15T07:01:29;17.30;99.90
35457;DHT22;21575;51.538;-0.084;2022-07-15T07:03:55;17.30;99.90
35457;DHT22;21575;51.538;-0.084;2022-07-15T07:06:21;17.30;99.90
35457;DHT22;21575;51.538;-0.084;2022-07-15T07:08:47;17.40;99.90
35457;DHT22;21575;51.538;-0.084;2022-07-15T07:11:14;17.50;99.90
35457;DHT22;21575;51.538;-0.084;2022-07-15T07:13:39;17.50;99.90
35457;DHT22;21575;51.538;-0.084;2022-07-15T07:16:05;17.60;99.90
35457;DHT22;21575;51.538;-0.084;2022-07-15T07:18:31;17.60;99.90
35457;DHT22;21575;51.538;-0.084;2022-07-15T07:20:57;17.70;99.90
35457;DHT22;21575;51.538;-0.084;2022-07-15T07:23:23;17.80;99.90
35457;DHT22;21575;51.538;-0.084;2022-07-15T07:25:55;17.80;99.90
35457;DHT22;21575;51.538;-0.084;2022-07-15T07:28:21;17.90;99.90
35457;DHT22;21575;51.538;-0.084;2022-07-15T07:30:46;17.90;99.90
35457;DHT22;21575;51.538;-0.084;2022-07-15T07:33:14;17.90;99.90
35457;DHT22;21575;51.538;-0.084;2022-07-15T07:35:40;17.90;99.90
35457;DHT22;21575;51.538;-0.084;2022-07-15T07:38:08;18.10;99.90
35457;DHT22;21575;51.538;-0.084;2022-07-15T07:40:33;18.10;99.90
35457;DHT22;21575;51.538;-0.084;2022-07-15T07:42:59;18.10;99.90
35457;DHT22;21575;51.538;-0.084;2022-07-15T07:45:25;18.20;99.90
35457;DHT22;21575;51.538;-0.084;2022-07-15T07:47:50;18.20;99.90
35457;DHT22;21575;51.538;-0.084;2022-07-15T07:50:17;18.30;99.90
35457;DHT22;21575;51.538;-0.084;2022-07-15T07:52:43;18.30;99.90
35457;DHT22;21575;51.538;-0.084;2022-07-15T07:55:09;18.40;99.90
35457;DHT22;21575;51.538;-0.084;2022-07-15T07:57:36;18.50;99.90
35457;DHT22;21575;51.538;-0.084;2022-07-15T08:00:11;18.50;99.90
35457;DHT22;21575;51.538;-0.084;2022-07-15T08:02:38;18.60;99.90
35457;DHT22;21575;51.538;-0.084;2022-07-15T08:05:04;18.60;99.90
35457;DHT22;21575;51.538;-0.084;2022-07-15T08:07:30;18.60;99.90
35457;DHT22;21575;51.538;-0.084;2022-07-15T08:09:55;18.70;99.90
35457;DHT22;21575;51.538;-0.084;2022-07-15T08:12:21;18.70;99.90
35457;DHT22;21575;51.538;-0.084;2022-07-15T08:14:47;18.90;99.90
35457;DHT22;21575;51.538;-0.084;2022-07-15T08:17:15;19.00;99.90
35457;DHT22;21575;51.538;-0.084;2022-07-15T08:19:41;19.00;99.90
35457;DHT22;21575;51.538;-0.084;2022-07-15T08:22:07;19.00;99.90
35457;DHT22;21575;51.538;-0.084;2022-07-15T08:24:32;19.00;99.90
35457;DHT22;21575;51.538;-0.084;2022-07-15T08:26:58;19.10;99.90
35457;DHT22;21575;51.538;-0.084;2022-07-15T08:29:24;19.10;99.90
35457;DHT22;21575;51.538;-0.084;2022-07-15T08:31:49;19.10;99.90
35457;DHT22;21575;51.538;-0.084;2022-07-15T08:34:15;19.30;99.90
35457;DHT22;21575;51.538;-0.084;2022-07-15T08:36:41;19.30;99.90
35457;DHT22;21575;51.538;-0.084;2022-07-15T08:39:07;19.30;99.90
35457;DHT22;21575;51.538;-0.084;2022-07-15T08:41:36;19.40;99.90
35457;DHT22;21575;51.538;-0.084;2022-07-15T08:44:02;19.30;99.90
35457;DHT22;21575;51.538;-0.084;2022-07-15T08:46:28;19.40;99.90
35457;DHT22;21575;51.538;-0.084;2022-07-15T08:48:58;19.40;99.90
35457;DHT22;21575;51.538;-0.084;2022-07-15T08:51:27;19.50;99.90
35457;DHT22;21575;51.538;-0.084;2022-07-15T08:53:53;19.50;99.90
35457;DHT22;21575;51.538;-0.084;2022-07-15T08:56:22;19.50;99.90
35457;DHT22;21575;51.538;-0.084;2022-07-15T08:58:48;19.60;99.90
35457;DHT22;21575;51.538;-0.084;2022-07-15T09:01:14;19.60;99.90
35457;DHT22;21575;51.538;-0.084;2022-07-15T09:03:39;19.70;99.90
35457;DHT22;21575;51.538;-0.084;2022-07-15T09:06:05;19.70;99.90
35457;DHT22;21575;51.538;-0.084;2022-07-15T09:08:31;19.80;99.90
35457;DHT22;21575;51.538;-0.084;2022-07-15T09:10:59;19.80;99.90
35457;DHT22;21575;51.538;-0.084;2022-07-15T09:15:52;19.90;99.90
35457;DHT22;21575;51.538;-0.084;2022-07-15T09:18:20;19.90;99.90
35457;DHT22;21575;51.538;-0.084;2022-07-15T09:20:47;20.00;99.90
35457;DHT22;21575;51.538;-0.084;2022-07-15T09:23:16;20.00;99.90
35457;DHT22;21575;51.538;-0.084;2022-07-15T09:25:47;20.10;99.90
35457;DHT22;21575;51.538;-0.084;2022-07-15T09:28:15;20.10;99.90
35457;DHT22;21575;51.538;-0.084;2022-07-15T09:30:45;20.20;99.90
35457;DHT22;21575;51.538;-0.084;2022-07-15T09:33:35;20.30;99.90
35457;DHT22;21575;51.538;-0.084;2022-07-15T09:38:59;20.40;99.90
35457;DHT22;21575;51.538;-0.084;2022-07-15T09:41:35;20.40;99.90
35457;DHT22;21575;51.538;-0.084;2022-07-15T09:44:03;20.50;99.90
35457;DHT22;21575;51.538;-0.084;2022-07-15T09:46:51;20.50;99.90
35457;DHT22;21575;51.538;-0.084;2022-07-15T09:49:32;20.60;99.90
35457;DHT22;21575;51.538;-0.084;2022-07-15T09:52:06;20.60;99.90
35457;DHT22;21575;51.538;-0.084;2022-07-15T09:54:35;20.70;99.90
35457;DHT22;21575;51.538;-0.084;2022-07-15T09:57:07;20.70;99.90
35457;DHT22;21575;51.538;-0.084;2022-07-15T09:59:33;20.80;99.90
35457;DHT22;21575;51.538;-0.084;2022-07-15T10:01:59;20.80;99.90
35457;DHT22;21575;51.538;-0.084;2022-07-15T10:04:27;20.90;99.90
35457;DHT22;21575;51.538;-0.084;2022-07-15T10:06:55;21.00;99.90
35457;DHT22;21575;51.538;-0.084;2022-07-15T10:09:27;21.10;99.90
35457;DHT22;21575;51.538;-0.084;2022-07-15T10:11:55;21.10;99.90
35457;DHT22;21575;51.538;-0.084;2022-07-15T10:27:52;21.30;99.90
35457;DHT22;21575;51.538;-0.084;2022-07-15T10:30:21;21.30;99.90
35457;DHT22;21575;51.538;-0.084;2022-07-15T10:38:32;21.70;99.90
35457;DHT22;21575;51.538;-0.084;2022-07-15T10:41:14;21.80;99.90
35457;DHT22;21575;51.538;-0.084;2022-07-15T10:43:51;21.90;99.90
35457;DHT22;21575;51.538;-0.084;2022-07-15T10:48:47;21.90;99.90
35457;DHT22;21575;51.538;-0.084;2022-07-15T10:56:33;22.00;99.90
35457;DHT22;21575;51.538;-0.084;2022-07-15T11:01:39;22.10;99.90
35457;DHT22;21575;51.538;-0.084;2022-07-15T11:04:26;22.20;99.90
35457;DHT22;21575;51.538;-0.084;2022-07-15T11:12:20;22.40;99.90
35457;DHT22;21575;51.538;-0.084;2022-07-15T11:14:48;22.40;99.90
35457;DHT22;21575;51.538;-0.084;2022-07-15T11:17:16;22.40;99.90
35457;DHT22;21575;51.538;-0.084;2022-07-15T11:19:52;22.50;99.90
35457;DHT22;21575;51.538;-0.084;2022-07-15T11:22:21;22.50;99.90
35457;DHT22;21575;51.538;-0.084;2022-07-15T11:24:47;22.50;99.30
35457;DHT22;21575;51.538;-0.084;2022-07-15T11:27:13;22.60;99.80
35457;DHT22;21575;51.538;-0.084;2022-07-15T11:29:54;22.60;99.60
35457;DHT22;21575;51.538;-0.084;2022-07-15T11:32:25;22.70;99.50
35457;DHT22;21575;51.538;-0.084;2022-07-15T11:34:57;22.80;99.40
35457;DHT22;21575;51.538;-0.084;2022-07-15T11:37:32;22.80;99.50
35457;DHT22;21575;51.538;-0.084;2022-07-15T11:40:16;22.80;99.90
35457;DHT22;21575;51.538;-0.084;2022-07-15T11:43:11;22.80;98.80
35457;DHT22;21575;51.538;-0.084;2022-07-15T11:45:56;22.80;98.70
35457;DHT22;21575;51.538;-0.084;2022-07-15T11:48:22;22.80;98.80
35457;DHT22;21575;51.538;-0.084;2022-07-15T11:50:50;22.80;98.30
35457;DHT22;21575;51.538;-0.084;2022-07-15T11:53:16;22.90;97.80
35457;DHT22;21575;51.538;-0.084;2022-07-15T11:58:31;23.00;98.30
35457;DHT22;21575;51.538;-0.084;2022-07-15T12:01:04;23.10;97.90
35457;DHT22;21575;51.538;-0.084;2022-07-15T12:03:34;23.20;97.10
35457;DHT22;21575;51.538;-0.084;2022-07-15T12:06:11;23.10;96.60
35457;DHT22;21575;51.538;-0.084;2022-07-15T12:08:53;23.10;95.80
35457;DHT22;21575;51.538;-0.084;2022-07-15T12:11:27;23.00;96.20
35457;DHT22;21575;51.538;-0.084;2022-07-15T12:13:57;23.10;95.80
35457;DHT22;21575;51.538;-0.084;2022-07-15T12:19:02;23.20;96.00
35457;DHT22;21575;51.538;-0.084;2022-07-15T12:21:29;23.20;96.00
35457;DHT22;21575;51.538;-0.084;2022-07-15T12:24:17;23.30;96.20
35457;DHT22;21575;51.538;-0.084;2022-07-15T12:29:26;23.30;96.50
35457;DHT22;21575;51.538;-0.084;2022-07-15T12:31:53;23.40;97.20
35457;DHT22;21575;51.538;-0.084;2022-07-15T12:34:19;23.40;96.60
35457;DHT22;21575;51.538;-0.084;2022-07-15T12:36:58;23.50;96.20
35457;DHT22;21575;51.538;-0.084;2022-07-15T12:39:24;23.50;96.10
35457;DHT22;21575;51.538;-0.084;2022-07-15T12:42:03;23.60;96.10
35457;DHT22;21575;51.538;-0.084;2022-07-15T12:44:30;23.60;96.60
35457;DHT22;21575;51.538;-0.084;2022-07-15T12:47:00;23.70;96.60
35457;DHT22;21575;51.538;-0.084;2022-07-15T12:57:38;24.20;95.30
35457;DHT22;21575;51.538;-0.084;2022-07-15T13:00:10;24.30;94.90
35457;DHT22;21575;51.538;-0.084;2022-07-15T13:05:47;24.40;94.60
35457;DHT22;21575;51.538;-0.084;2022-07-15T13:08:40;24.30;94.20
35457;DHT22;21575;51.538;-0.084;2022-07-15T13:11:08;24.40;94.10
35457;DHT22;21575;51.538;-0.084;2022-07-15T13:13:35;24.40;94.00
35457;DHT22;21575;51.538;-0.084;2022-07-15T13:16:02;24.40;93.80
35457;DHT22;21575;51.538;-0.084;2022-07-15T13:18:29;24.30;93.60
35457;DHT22;21575;51.538;-0.084;2022-07-15T13:20:56;24.40;93.80
35457;DHT22;21575;51.538;-0.084;2022-07-15T13:23:22;24.50;93.60
35457;DHT22;21575;51.538;-0.084;2022-07-15T13:25:48;24.60;93.60
35457;DHT22;21575;51.538;-0.084;2022-07-15T13:28:16;24.70;93.20
35457;DHT22;21575;51.538;-0.084;2022-07-15T13:30:42;24.90;93.30
35457;DHT22;21575;51.538;-0.084;2022-07-15T13:33:07;24.90;92.70
35457;DHT22;21575;51.538;-0.084;2022-07-15T13:35:33;25.00;92.80
35457;DHT22;21575;51.538;-0.084;2022-07-15T13:37:59;25.00;92.60
35457;DHT22;21575;51.538;-0.084;2022-07-15T13:40:24;25.00;92.40
35457;DHT22;21575;51.538;-0.084;2022-07-15T13:42:50;25.10;92.10
35457;DHT22;21575;51.538;-0.084;2022-07-15T13:45:17;25.10;92.00
35457;DHT22;21575;51.538;-0.084;2022-07-15T13:47:43;25.20;91.80
35457;DHT22;21575;51.538;-0.084;2022-07-15T13:50:09;25.20;90.90
35457;DHT22;21575;51.538;-0.084;2022-07-15T13:52:56;25.20;91.40
35457;DHT22;21575;51.538;-0.084;2022-07-15T13:55:22;25.20;90.80
35457;DHT22;21575;51.538;-0.084;2022-07-15T13:57:48;25.20;90.60
35457;DHT22;21575;51.538;-0.084;2022-07-15T14:00:19;25.10;90.50
35457;DHT22;21575;51.538;-0.084;2022-07-15T14:02:49;25.00;90.50
35457;DHT22;21575;51.538;-0.084;2022-07-15T14:05:15;25.00;90.60
35457;DHT22;21575;51.538;-0.084;2022-07-15T14:07:41;25.00;91.10
35457;DHT22;21575;51.538;-0.084;2022-07-15T14:10:07;25.00;91.30
35457;DHT22;21575;51.538;-0.084;2022-07-15T14:12:33;25.10;91.20
35457;DHT22;21575;51.538;-0.084;2022-07-15T14:14:59;25.10;91.60
35457;DHT22;21575;51.538;-0.084;2022-07-15T14:17:25;25.10;90.90
35457;DHT22;21575;51.538;-0.084;2022-07-15T14:19:51;25.20;90.80
35457;DHT22;21575;51.538;-0.084;2022-07-15T14:22:17;25.20;91.30
35457;DHT22;21575;51.538;-0.084;2022-07-15T14:24:42;25.20;90.20
35457;DHT22;21575;51.538;-0.084;2022-07-15T14:27:08;25.20;90.20
35457;DHT22;21575;51.538;-0.084;2022-07-15T14:29:34;25.30;90.20
35457;DHT22;21575;51.538;-0.084;2022-07-15T14:32:00;25.30;90.30
35457;DHT22;21575;51.538;-0.084;2022-07-15T14:34:25;25.30;90.10
35457;DHT22;21575;51.538;-0.084;2022-07-15T14:36:51;25.40;90.30
35457;DHT22;21575;51.538;-0.084;2022-07-15T14:39:17;25.40;90.60
35457;DHT22;21575;51.538;-0.084;2022-07-15T14:41:42;25.40;90.80
35457;DHT22;21575;51.538;-0.084;2022-07-15T14:44:08;25.30;90.50
35457;DHT22;21575;51.538;-0.084;2022-07-15T14:46:34;25.20;90.50
35457;DHT22;21575;51.538;-0.084;2022-07-15T14:48:59;25.20;90.70
35457;DHT22;21575;51.538;-0.084;2022-07-15T14:51:25;25.10;90.70
35457;DHT22;21575;51.538;-0.084;2022-07-15T14:53:51;25.10;90.80
35457;DHT22;21575;51.538;-0.084;2022-07-15T14:56:16;25.10;90.70
35457;DHT22;21575;51.538;-0.084;2022-07-15T14:58:42;25.10;90.80
35457;DHT22;21575;51.538;-0.084;2022-07-15T15:01:08;25.20;91.70
35457;DHT22;21575;51.538;-0.084;2022-07-15T15:03:34;25.20;91.10
35457;DHT22;21575;51.538;-0.084;2022-07-15T15:06:00;25.40;91.00
35457;DHT22;21575;51.538;-0.084;2022-07-15T15:08:25;25.40;90.80
35457;DHT22;21575;51.538;-0.084;2022-07-15T15:10:51;25.40;90.50
35457;DHT22;21575;51.538;-0.084;2022-07-15T15:13:17;25.50;90.40
35457;DHT22;21575;51.538;-0.084;2022-07-15T15:15:43;25.40;90.60
35457;DHT22;21575;51.538;-0.084;2022-07-15T15:18:09;25.30;90.90
35457;DHT22;21575;51.538;-0.084;2022-07-15T15:20:35;25.40;91.30
35457;DHT22;21575;51.538;-0.084;2022-07-15T15:23:00;25.40;90.60
35457;DHT22;21575;51.538;-0.084;2022-07-15T15:25:26;25.40;91.20
35457;DHT22;21575;51.538;-0.084;2022-07-15T15:28:11;25.50;91.10
35457;DHT22;21575;51.538;-0.084;2022-07-15T15:30:37;25.50;90.70
35457;DHT22;21575;51.538;-0.084;2022-07-15T15:33:03;25.50;91.20
35457;DHT22;21575;51.538;-0.084;2022-07-15T15:35:28;25.50;91.00
35457;DHT22;21575;51.538;-0.084;2022-07-15T15:37:54;25.60;90.50
35457;DHT22;21575;51.538;-0.084;2022-07-15T15:40:20;25.50;90.40
35457;DHT22;21575;51.538;-0.084;2022-07-15T15:42:46;25.40;90.60
35457;DHT22;21575;51.538;-0.084;2022-07-15T15:45:11;25.40;90.60
35457;DHT22;21575;51.538;-0.084;2022-07-15T15:47:37;25.40;90.70
35457;DHT22;21575;51.538;-0.084;2022-07-15T15:50:03;25.40;90.30
35457;DHT22;21575;51.538;-0.084;2022-07-15T15:52:28;25.50;90.60
35457;DHT22;21575;51.538;-0.084;2022-07-15T15:54:54;25.40;90.50
35457;DHT22;21575;51.538;-0.084;2022-07-15T15:57:20;25.50;90.90
35457;DHT22;21575;51.538;-0.084;2022-07-15T15:59:45;25.50;90.70
35457;DHT22;21575;51.538;-0.084;2022-07-15T16:02:11;25.50;90.90
35457;DHT22;21575;51.538;-0.084;2022-07-15T16:04:37;25.60;90.90
35457;DHT22;21575;51.538;-0.084;2022-07-15T16:07:03;25.50;90.50
35457;DHT22;21575;51.538;-0.084;2022-07-15T16:09:28;25.50;90.60
35457;DHT22;21575;51.538;-0.084;2022-07-15T16:11:54;25.60;90.60
35457;DHT22;21575;51.538;-0.084;2022-07-15T16:14:19;25.50;90.70
35457;DHT22;21575;51.538;-0.084;2022-07-15T16:16:45;25.50;90.80